CheckWX is a tool to help pilots better visualize weather data.  It is not intended as a substitute for an official pre-flight weather briefing.

08:12:09 UTC

KMKC METAR
Charles B Wheeler Downtown Airport
Kansas City, Missouri, USA
Current

18 mins ago

KMKC 220754Z 05006KT 10SM CLR M01/M06 A3025 RMK AO2 SLP250 T10061056
Observed
Feb-22 @ 07:54 UTC
Wind
  • 050° at 6 KTS
Visibility
10 SM
Flight Rules
VFR
Cloud Levels
  • Clear skies
Temperature
-1°C / 30°F
Dewpoint
-6°C / 21°F
Humidity
69%
Altimeter
30.25" Hg
Pressure
1025 hPa
Previous

1 hour ago

KMKC 220654Z 06005KT 10SM CLR 00/M06 A3025 RMK AO2 SLP248 T00001056
Observed
Feb-22 @ 06:54 UTC
Wind
  • 060° at 5 KTS
Visibility
10 SM
Flight Rules
VFR
Cloud Levels
  • Clear skies
Temperature
C / 32°F
Dewpoint
-6°C / 21°F
Humidity
64%
Altimeter
30.25" Hg
Pressure
1024.8 hPa
Previous

2 hours ago

KMKC 220554Z 08004KT 10SM CLR 00/M06 A3023 RMK AO2 SLP244 T00001056 10033 20000 400501061 51014
Observed
Feb-22 @ 05:54 UTC
Wind
  • 080° at 4 KTS
Visibility
10 SM
Flight Rules
VFR
Cloud Levels
  • Clear skies
Temperature
C / 32°F
Dewpoint
-6°C / 21°F
Humidity
64%
Altimeter
30.23" Hg
Pressure
1024.4 hPa